Search for airport 
image banner adimage banner adimage banner ad
image banner ad

O46 - Weed

Located in Weed, United States

ICAO - O46, IATA -

Data provided by Airmate  

General information

Coordinates: N41°28'51" W122°27'16"
Elevation is 2943 feet MSL.
Magnetic variation is 14° East
View others Airports in California

Operational data

Special qualification required
Current time UTC:
Current local time:
Weather at : KSIY - Siskiyou County ( 33 km )
METAR: KSIY 240953Z AUTO 11004KT 10SM CLR 16/03 A3003 RMK AO2 SLP152 T01610028
View NOTAMs / SUP AIP / TFR affecting this airport [VIEW]
Communications frequencies: [VIEW]

Runways:

RWY identifierQFULength (ft)Width (ft)SurfaceLDA (ft)
14500060ASPH
32500060ASPH

Airport contact information

Address: Weed United States

Satellite view of O46